createdAt,value
2022-07-29T00:00:40.897Z,63.12
2022-07-29T00:03:29.107Z,63.10
2022-07-29T00:06:09.878Z,63.33
2022-07-29T00:08:57.873Z,63.01
2022-07-29T00:11:45.909Z,63.57
2022-07-29T00:14:36.084Z,63.62
2022-07-29T00:17:19.067Z,63.77
2022-07-29T00:20:00.615Z,63.96
2022-07-29T00:22:51.827Z,64.15
2022-07-29T00:25:40.040Z,64.36
2022-07-29T00:28:27.790Z,64.43
2022-07-29T00:31:18.052Z,64.69
2022-07-29T00:34:06.796Z,64.80
2022-07-29T00:36:53.822Z,65.05
2022-07-29T00:39:35.542Z,65.02
2022-07-29T00:42:23.768Z,65.48
2022-07-29T00:45:12.796Z,65.61
2022-07-29T00:47:55.993Z,65.32
2022-07-29T00:50:44.809Z,65.68
2022-07-29T00:53:27.085Z,65.60
2022-07-29T00:56:14.801Z,65.57
2022-07-29T00:59:05.830Z,65.86
2022-07-29T01:01:53.783Z,66.30
2022-07-29T01:04:43.764Z,66.32
2022-07-29T01:07:32.737Z,66.57
2022-07-29T01:10:17.800Z,66.88
2022-07-29T01:13:08.540Z,67.10
2022-07-29T01:15:54.501Z,67.47
2022-07-29T01:18:46.721Z,67.88
2022-07-29T01:21:56.704Z,68.06
2022-07-29T01:25:08.716Z,68.39
2022-07-29T01:28:16.726Z,68.57
2022-07-29T01:31:02.626Z,68.47
2022-07-29T01:33:59.701Z,68.45
2022-07-29T01:36:47.916Z,69.29
2022-07-29T01:39:41.703Z,69.20
2022-07-29T01:42:38.674Z,68.98
2022-07-29T01:45:30.697Z,68.87
2022-07-29T01:48:24.806Z,69.35
2022-07-29T01:51:11.940Z,69.10
2022-07-29T01:54:03.667Z,69.14
2022-07-29T01:56:53.669Z,69.48
2022-07-29T01:59:43.721Z,69.55
2022-07-29T02:02:26.885Z,69.39
2022-07-29T02:05:20.723Z,69.44
2022-07-29T02:08:10.659Z,69.17
2022-07-29T02:11:01.686Z,69.41
2022-07-29T02:13:52.651Z,69.61
2022-07-29T02:16:43.658Z,69.45
2022-07-29T02:19:27.009Z,69.66
2022-07-29T02:22:19.655Z,69.54
2022-07-29T02:25:14.110Z,69.82
2022-07-29T02:28:10.600Z,69.40
2022-07-29T02:31:00.662Z,69.65
2022-07-29T02:33:50.631Z,69.69
2022-07-29T02:36:33.620Z,69.83
2022-07-29T02:39:24.615Z,69.82
2022-07-29T02:42:09.432Z,69.97
2022-07-29T02:44:57.580Z,69.78
2022-07-29T02:47:50.602Z,69.95
2022-07-29T02:50:45.591Z,70.12
2022-07-29T02:53:35.595Z,70.07
2022-07-29T02:56:22.803Z,70.25
2022-07-29T02:59:19.575Z,70.29
2022-07-29T03:02:09.621Z,70.45
2022-07-29T03:05:00.632Z,70.51
2022-07-29T03:07:50.573Z,70.59
2022-07-29T03:10:39.585Z,70.57
2022-07-29T03:13:24.777Z,70.46
2022-07-29T03:16:13.601Z,71.03
2022-07-29T03:18:55.757Z,71.12
2022-07-29T03:21:43.674Z,71.32
2022-07-29T03:24:38.764Z,71.18
2022-07-29T03:27:27.550Z,71.46
2022-07-29T03:30:25.534Z,71.38
2022-07-29T03:33:13.331Z,71.66
2022-07-29T03:36:01.588Z,71.72
2022-07-29T03:38:52.718Z,71.86
2022-07-29T03:41:34.540Z,71.96
2022-07-29T03:44:23.715Z,72.48
2022-07-29T03:47:10.519Z,72.10
2022-07-29T03:50:02.503Z,72.24
2022-07-29T03:52:45.399Z,72.26
2022-07-29T03:55:37.540Z,72.22
2022-07-29T03:58:19.689Z,72.06
2022-07-29T04:01:08.504Z,72.00
2022-07-29T04:03:58.505Z,72.16
2022-07-29T04:06:48.582Z,72.10
2022-07-29T04:09:29.665Z,72.25
2022-07-29T04:12:18.472Z,72.07
2022-07-29T04:14:59.710Z,72.23
2022-07-29T04:17:47.444Z,71.81
2022-07-29T04:20:39.473Z,71.98
2022-07-29T04:23:27.698Z,72.04
2022-07-29T04:26:09.479Z,72.06
2022-07-29T04:28:58.446Z,72.05
2022-07-29T04:31:46.547Z,72.19
2022-07-29T04:34:34.666Z,72.03
2022-07-29T04:37:18.559Z,72.00
2022-07-29T04:40:06.698Z,71.81
2022-07-29T04:42:48.441Z,72.21
2022-07-29T04:45:31.182Z,72.03
2022-07-29T04:48:19.428Z,72.54
2022-07-29T04:51:07.434Z,72.38
2022-07-29T04:53:57.546Z,72.45
2022-07-29T04:56:39.146Z,72.72
2022-07-29T04:59:27.406Z,72.72
2022-07-29T05:02:15.667Z,72.88
2022-07-29T05:04:57.406Z,72.87
2022-07-29T05:07:45.535Z,73.18
2022-07-29T05:10:29.101Z,72.99
2022-07-29T05:13:16.517Z,73.04
2022-07-29T05:15:59.319Z,72.96
2022-07-29T05:18:48.438Z,73.02
2022-07-29T05:21:29.566Z,72.71
2022-07-29T05:24:17.782Z,72.77
2022-07-29T05:27:00.571Z,72.85
2022-07-29T05:29:48.355Z,72.65
2022-07-29T05:32:29.937Z,72.90
2022-07-29T05:35:19.355Z,72.80
2022-07-29T05:38:07.366Z,72.75
2022-07-29T05:40:55.347Z,72.56
2022-07-29T05:43:38.670Z,72.57
2022-07-29T05:46:27.393Z,72.44
2022-07-29T05:49:08.606Z,72.48
2022-07-29T05:51:57.371Z,72.46
2022-07-29T05:54:38.540Z,72.42
2022-07-29T05:57:28.357Z,72.32
2022-07-29T06:00:12.790Z,72.33
2022-07-29T06:03:01.319Z,72.44
2022-07-29T06:05:49.305Z,71.45
2022-07-29T06:08:37.564Z,67.94
2022-07-29T06:11:18.310Z,65.14
2022-07-29T06:14:06.292Z,62.50
2022-07-29T06:16:49.597Z,59.86
2022-07-29T06:19:38.289Z,56.34
2022-07-29T06:22:19.513Z,55.87
2022-07-29T06:25:07.286Z,54.28
2022-07-29T06:27:55.267Z,51.53
2022-07-29T06:30:43.541Z,50.98
2022-07-29T06:33:29.498Z,49.15
2022-07-29T06:36:18.288Z,47.88
2022-07-29T06:39:06.260Z,46.63
2022-07-29T06:41:56.479Z,45.33
2022-07-29T06:44:38.295Z,45.51
2022-07-29T06:47:19.703Z,44.41
2022-07-29T06:50:09.255Z,43.18
2022-07-29T06:52:57.506Z,42.12
2022-07-29T06:55:38.295Z,42.56
2022-07-29T06:58:26.727Z,41.54
2022-07-29T07:01:11.278Z,41.13
2022-07-29T07:04:01.229Z,39.96
2022-07-29T07:06:51.221Z,40.16
2022-07-29T07:09:41.030Z,39.99
2022-07-29T07:12:22.428Z,40.26
2022-07-29T07:15:11.223Z,38.91
2022-07-29T07:17:53.456Z,39.29
2022-07-29T07:20:41.209Z,38.10
2022-07-29T07:23:31.218Z,37.96
2022-07-29T07:26:12.983Z,38.27
2022-07-29T07:29:01.343Z,38.56
2022-07-29T07:31:43.084Z,37.35
2022-07-29T07:34:31.201Z,35.72
2022-07-29T07:37:13.012Z,34.42
2022-07-29T07:40:03.189Z,35.48
2022-07-29T07:42:51.181Z,35.29
2022-07-29T07:45:33.626Z,35.39
2022-07-29T07:48:21.221Z,33.99
2022-07-29T07:51:02.413Z,34.42
2022-07-29T07:53:52.217Z,34.61
2022-07-29T07:56:35.558Z,34.50
2022-07-29T07:59:23.185Z,33.73
2022-07-29T08:02:04.526Z,33.51
2022-07-29T08:04:52.167Z,32.74
2022-07-29T08:07:33.396Z,33.11
2022-07-29T08:10:22.153Z,32.34
2022-07-29T08:13:05.383Z,31.46
2022-07-29T08:15:53.145Z,32.70
2022-07-29T08:18:35.359Z,32.41
2022-07-29T08:21:24.158Z,31.12
2022-07-29T08:24:26.126Z,32.23
2022-07-29T08:27:40.807Z,31.60
2022-07-29T08:30:30.124Z,30.75
2022-07-29T08:33:18.134Z,30.92
2022-07-29T08:35:59.352Z,30.94
2022-07-29T08:38:47.111Z,29.55
2022-07-29T08:41:36.138Z,30.17
2022-07-29T08:44:31.058Z,29.17
2022-07-29T08:47:14.125Z,30.15
2022-07-29T08:50:02.101Z,29.24
2022-07-29T08:52:45.355Z,29.45
2022-07-29T08:55:33.205Z,28.72
2022-07-29T08:58:15.680Z,29.09
2022-07-29T09:01:05.164Z,29.53
2022-07-29T09:03:59.139Z,30.28
2022-07-29T09:06:52.094Z,29.24
2022-07-29T09:09:33.792Z,29.25
2022-07-29T09:12:29.319Z,29.34
2022-07-29T09:15:12.315Z,29.45
2022-07-29T09:18:00.067Z,29.13
2022-07-29T09:21:08.098Z,30.18
2022-07-29T09:24:03.812Z,30.22
2022-07-29T09:26:55.374Z,29.68
2022-07-29T09:29:51.045Z,30.35
2022-07-29T09:32:40.064Z,30.94
2022-07-29T09:35:27.287Z,30.70
2022-07-29T09:38:23.072Z,30.92
2022-07-29T09:41:09.115Z,30.55
2022-07-29T09:44:03.151Z,30.89
2022-07-29T09:46:44.370Z,31.01
2022-07-29T09:49:32.145Z,30.73
2022-07-29T09:52:15.316Z,30.26
2022-07-29T09:55:18.157Z,31.12
2022-07-29T09:57:59.267Z,31.00
2022-07-29T10:00:51.117Z,31.30
2022-07-29T10:03:39.076Z,31.61
2022-07-29T10:06:20.833Z,32.25
2022-07-29T10:09:10.005Z,32.71
2022-07-29T10:12:17.391Z,33.73
2022-07-29T10:14:59.022Z,33.47
2022-07-29T10:17:47.246Z,33.53
2022-07-29T10:20:29.019Z,34.41
2022-07-29T10:23:24.980Z,34.45
2022-07-29T10:26:12.982Z,35.13
2022-07-29T10:29:08.966Z,34.29
2022-07-29T10:32:18.002Z,34.00
2022-07-29T10:35:34.149Z,36.42
2022-07-29T10:38:51.964Z,35.73
2022-07-29T10:42:20.101Z,34.89
2022-07-29T10:45:18.969Z,34.85
2022-07-29T10:48:19.190Z,35.17
2022-07-29T10:51:03.916Z,33.78
2022-07-29T10:54:03.058Z,35.79
2022-07-29T10:56:44.951Z,34.35
2022-07-29T10:59:38.975Z,34.09
2022-07-29T11:03:04.544Z,34.35
2022-07-29T11:06:11.959Z,34.51
2022-07-29T11:12:55.960Z,34.10
2022-07-29T11:16:02.166Z,35.16
2022-07-29T11:18:42.910Z,36.40
2022-07-29T11:21:55.096Z,36.54
2022-07-29T11:24:50.427Z,36.67
2022-07-29T11:27:40.666Z,36.39
2022-07-29T11:30:29.908Z,36.54
2022-07-29T11:33:11.147Z,38.01
2022-07-29T11:36:17.141Z,38.28
2022-07-29T11:39:00.178Z,37.74
2022-07-29T11:41:47.889Z,36.79
2022-07-29T11:45:42.563Z,36.42
2022-07-29T11:48:29.034Z,36.47
2022-07-29T11:51:18.885Z,37.25
2022-07-29T11:54:27.256Z,36.29
2022-07-29T11:57:15.862Z,36.54
2022-07-29T12:00:04.766Z,36.36
2022-07-29T12:02:59.945Z,36.01
2022-07-29T12:05:51.982Z,35.83
2022-07-29T12:08:33.886Z,35.92
2022-07-29T12:11:26.070Z,35.81
2022-07-29T12:14:06.863Z,36.07
2022-07-29T12:16:55.209Z,36.04
2022-07-29T12:19:35.862Z,35.24
2022-07-29T12:22:27.266Z,35.28
2022-07-29T12:25:33.060Z,35.60
2022-07-29T12:28:26.433Z,34.42
2022-07-29T12:31:43.070Z,34.97
2022-07-29T12:34:18.452Z,35.06
2022-07-29T12:37:05.829Z,33.94
2022-07-29T12:39:55.836Z,34.86
2022-07-29T12:42:37.146Z,34.19
2022-07-29T12:45:36.809Z,34.57
2022-07-29T12:48:19.045Z,33.68
2022-07-29T12:51:08.979Z,34.22
2022-07-29T12:53:50.215Z,34.31
2022-07-29T12:56:45.523Z,34.68
2022-07-29T12:59:29.032Z,34.68
2022-07-29T13:02:29.849Z,34.81
2022-07-29T13:05:21.794Z,35.26
2022-07-29T13:08:21.946Z,35.26
2022-07-29T13:11:04.039Z,35.41
2022-07-29T13:14:06.830Z,34.91
2022-07-29T13:17:13.132Z,34.51
2022-07-29T13:20:16.778Z,36.06
2022-07-29T13:22:58.027Z,36.52
2022-07-29T13:25:48.773Z,36.22
2022-07-29T13:28:36.756Z,35.88
2022-07-29T13:31:31.772Z,36.12
2022-07-29T13:34:19.847Z,36.78
2022-07-29T13:37:03.193Z,36.46
2022-07-29T13:39:52.888Z,36.45
2022-07-29T13:42:41.743Z,36.86
2022-07-29T13:45:29.786Z,37.04
2022-07-29T13:48:12.219Z,38.05
2022-07-29T13:51:00.747Z,38.23
2022-07-29T13:53:43.962Z,38.06
2022-07-29T13:56:31.734Z,38.23
2022-07-29T13:59:12.971Z,38.40
2022-07-29T14:02:01.187Z,38.80
2022-07-29T14:04:49.769Z,38.12
2022-07-29T14:07:37.966Z,37.70
2022-07-29T14:10:20.692Z,37.29
2022-07-29T14:13:24.439Z,37.48
2022-07-29T14:16:05.928Z,37.27
2022-07-29T14:18:54.720Z,37.24
2022-07-29T14:21:35.946Z,36.95
2022-07-29T14:24:24.697Z,35.17
2022-07-29T14:27:15.709Z,34.96
2022-07-29T14:30:10.706Z,35.67
2022-07-29T14:32:58.677Z,36.50
2022-07-29T14:35:40.270Z,35.65
2022-07-29T14:38:27.681Z,36.73
2022-07-29T14:41:09.894Z,36.73
2022-07-29T14:44:00.661Z,35.33
2022-07-29T14:46:49.490Z,34.49
2022-07-29T14:49:37.875Z,34.75
2022-07-29T14:52:18.704Z,35.79
2022-07-29T14:55:16.258Z,35.33
2022-07-29T14:58:09.691Z,35.17
2022-07-29T15:00:59.746Z,35.47
2022-07-29T15:03:40.882Z,35.34
2022-07-29T15:06:28.638Z,35.70
2022-07-29T15:09:10.844Z,35.07
2022-07-29T15:12:00.076Z,35.43
2022-07-29T15:14:41.215Z,36.27
2022-07-29T15:17:30.656Z,36.43
2022-07-29T15:20:34.602Z,37.03
2022-07-29T15:23:22.633Z,37.38
2022-07-29T15:26:03.862Z,37.06
2022-07-29T15:28:51.607Z,37.53
2022-07-29T15:31:46.711Z,38.08
2022-07-29T15:34:36.585Z,37.48
2022-07-29T15:37:24.669Z,38.64
2022-07-29T15:40:14.602Z,38.67
2022-07-29T15:42:55.831Z,39.16
2022-07-29T15:45:45.642Z,40.05
2022-07-29T15:48:26.809Z,39.59
2022-07-29T15:51:16.590Z,39.95
2022-07-29T15:54:04.590Z,39.55
2022-07-29T15:56:52.591Z,40.16
2022-07-29T15:59:41.697Z,40.54
2022-07-29T16:02:29.818Z,40.83
2022-07-29T16:05:11.579Z,40.39
2022-07-29T16:08:00.801Z,40.69
2022-07-29T16:10:42.549Z,41.28
2022-07-29T16:13:30.557Z,41.33
2022-07-29T16:16:12.845Z,41.68
2022-07-29T16:19:00.532Z,41.99
2022-07-29T16:21:41.793Z,41.02
2022-07-29T16:24:36.535Z,40.52
2022-07-29T16:27:24.534Z,41.10
2022-07-29T16:30:14.575Z,41.47
2022-07-29T16:32:55.751Z,41.75
2022-07-29T16:35:45.528Z,41.51
2022-07-29T16:38:26.862Z,41.61
2022-07-29T16:41:16.597Z,42.14
2022-07-29T16:44:04.515Z,40.81
2022-07-29T16:46:46.933Z,41.09
2022-07-29T16:49:37.603Z,41.43
2022-07-29T16:52:20.000Z,41.56
2022-07-29T16:55:07.533Z,42.88
2022-07-29T16:57:52.679Z,43.18
2022-07-29T17:00:40.562Z,43.27
2022-07-29T17:03:28.610Z,42.41
2022-07-29T17:06:09.691Z,43.56
2022-07-29T17:08:57.502Z,42.95
2022-07-29T17:11:53.544Z,42.72
2022-07-29T17:14:44.478Z,42.51
2022-07-29T17:17:39.404Z,42.41
2022-07-29T17:20:34.461Z,42.52
2022-07-29T17:23:15.652Z,42.13
2022-07-29T17:26:03.444Z,42.73
2022-07-29T17:28:44.663Z,43.98
2022-07-29T17:31:34.507Z,44.28
2022-07-29T17:34:15.646Z,44.88
2022-07-29T17:37:03.462Z,44.94
2022-07-29T17:39:45.753Z,45.11
2022-07-29T17:42:33.436Z,45.37
2022-07-29T17:45:22.414Z,45.50
2022-07-29T17:48:13.430Z,45.69
2022-07-29T17:51:02.424Z,45.56
2022-07-29T17:53:50.475Z,45.45
2022-07-29T17:56:32.642Z,45.75
2022-07-29T17:59:21.428Z,45.82
2022-07-29T18:02:02.701Z,46.31
2022-07-29T18:04:52.399Z,46.13
2022-07-29T18:07:33.840Z,46.51
2022-07-29T18:10:21.405Z,46.72
2022-07-29T18:13:02.867Z,47.38
2022-07-29T18:15:51.459Z,47.60
2022-07-29T18:18:32.575Z,48.00
2022-07-29T18:21:43.597Z,48.06
2022-07-29T18:24:31.372Z,48.49
2022-07-29T18:27:20.224Z,48.62
2022-07-29T18:30:08.375Z,48.94
2022-07-29T18:33:19.605Z,49.17
2022-07-29T18:36:07.672Z,48.71
2022-07-29T18:39:01.579Z,49.18
2022-07-29T18:41:46.057Z,49.18
2022-07-29T18:44:43.874Z,49.86
2022-07-29T18:47:32.218Z,50.17
2022-07-29T18:50:23.693Z,50.62
2022-07-29T18:53:14.336Z,51.06
2022-07-29T18:56:04.321Z,50.93
2022-07-29T18:58:52.326Z,51.21
2022-07-29T19:01:40.405Z,51.82
2022-07-29T19:04:22.616Z,52.22
2022-07-29T19:07:11.321Z,52.75
2022-07-29T19:09:52.623Z,53.16
2022-07-29T19:12:42.330Z,53.54
2022-07-29T19:15:30.473Z,53.99
2022-07-29T19:18:20.314Z,54.26
2022-07-29T19:21:08.454Z,54.30
2022-07-29T19:24:00.403Z,55.02
2022-07-29T19:26:54.312Z,55.03
2022-07-29T19:29:50.278Z,55.51
2022-07-29T19:32:38.277Z,55.57
2022-07-29T19:35:32.263Z,55.67
2022-07-29T19:38:14.409Z,55.77
2022-07-29T19:41:02.429Z,55.92
2022-07-29T19:43:53.086Z,55.91
2022-07-29T19:46:36.315Z,56.31
2022-07-29T19:49:18.038Z,56.17
2022-07-29T19:52:06.253Z,56.41
2022-07-29T19:54:54.456Z,56.47
2022-07-29T19:57:40.866Z,56.65
2022-07-29T20:00:25.273Z,56.77
2022-07-29T20:03:15.323Z,56.83
2022-07-29T20:06:03.437Z,57.21
2022-07-29T20:08:45.336Z,57.48
2022-07-29T20:11:29.867Z,57.68
2022-07-29T20:14:18.241Z,57.88
2022-07-29T20:17:06.237Z,57.99
2022-07-29T20:19:56.213Z,58.46
2022-07-29T20:22:44.751Z,58.46
2022-07-29T20:25:25.206Z,58.82
2022-07-29T20:28:14.203Z,58.63
2022-07-29T20:31:02.245Z,59.01
2022-07-29T20:33:43.930Z,58.95
2022-07-29T20:36:33.267Z,59.12
2022-07-29T20:39:21.189Z,59.36
2022-07-29T20:42:09.239Z,59.49
2022-07-29T20:44:58.128Z,59.57
2022-07-29T20:47:39.236Z,59.74
2022-07-29T20:50:29.282Z,59.71
2022-07-29T20:53:12.371Z,60.11
2022-07-29T20:56:00.287Z,59.91
2022-07-29T20:58:42.796Z,59.98
2022-07-29T21:01:30.359Z,60.09
2022-07-29T21:04:12.370Z,60.36
2022-07-29T21:07:01.527Z,60.43
2022-07-29T21:09:51.165Z,60.55
2022-07-29T21:12:39.341Z,60.49
2022-07-29T21:15:23.145Z,61.10
2022-07-29T21:18:26.815Z,60.86
2022-07-29T21:21:09.148Z,61.01
2022-07-29T21:23:57.336Z,60.97
2022-07-29T21:26:40.109Z,61.30
2022-07-29T21:29:27.185Z,61.15
2022-07-29T21:32:27.593Z,61.20
2022-07-29T21:35:23.415Z,61.17
2022-07-29T21:38:20.109Z,61.36
2022-07-29T21:41:10.864Z,61.17
2022-07-29T21:43:54.228Z,61.50
2022-07-29T21:46:46.319Z,61.80
2022-07-29T21:49:27.281Z,61.77
2022-07-29T21:52:09.181Z,61.78
2022-07-29T21:54:57.157Z,61.98
2022-07-29T21:57:45.288Z,61.78
2022-07-29T22:00:29.084Z,61.87
2022-07-29T22:03:18.154Z,61.46
2022-07-29T22:06:06.061Z,61.50
2022-07-29T22:08:54.305Z,61.66
2022-07-29T22:11:35.200Z,61.66
2022-07-29T22:14:25.148Z,61.65
2022-07-29T22:17:08.470Z,61.55
2022-07-29T22:19:56.072Z,61.37
2022-07-29T22:22:37.342Z,61.43
2022-07-29T22:25:25.042Z,61.46
2022-07-29T22:28:06.277Z,61.48
2022-07-29T22:31:01.104Z,61.57
2022-07-29T22:33:50.262Z,61.68
2022-07-29T22:36:32.153Z,62.14
2022-07-29T22:39:20.291Z,61.72
2022-07-29T22:42:02.063Z,61.82
2022-07-29T22:44:43.846Z,61.79
2022-07-29T22:47:48.040Z,62.31
2022-07-29T22:50:31.266Z,62.71
2022-07-29T22:53:19.006Z,62.76
2022-07-29T22:56:07.319Z,63.12
2022-07-29T22:58:48.115Z,63.66
2022-07-29T23:01:38.109Z,63.44
2022-07-29T23:04:19.090Z,63.28
2022-07-29T23:07:02.384Z,63.00
2022-07-29T23:09:49.991Z,63.37
2022-07-29T23:12:31.859Z,63.04
2022-07-29T23:15:20.982Z,63.21
2022-07-29T23:18:17.668Z,63.25
2022-07-29T23:20:59.157Z,63.33
2022-07-29T23:23:49.173Z,63.05
2022-07-29T23:26:29.981Z,62.96
2022-07-29T23:29:11.728Z,62.68
2022-07-29T23:31:59.966Z,62.55
2022-07-29T23:34:48.163Z,62.30
2022-07-29T23:37:28.925Z,62.49
2022-07-29T23:40:20.004Z,62.31
2022-07-29T23:43:08.601Z,62.67
2022-07-29T23:45:58.202Z,62.64
2022-07-29T23:48:39.983Z,62.83
2022-07-29T23:51:29.182Z,62.56
2022-07-29T23:54:10.114Z,62.94
2022-07-29T23:57:00.096Z,62.55
2022-07-29T23:59:47.905Z,62.36
